LFBYLFBP

Guest
Details From LFBY - Dax Seyresse
To LFBP - Pau Pyrenees
Flight Number -
Tags decoded
Created
Modified
Stats Distance 185 nm / 342 km
Max Altitude 0 ft / 0 m
Waypoints 3
Social Downloads 1
Likes 0
Share VATSIM

Download

Looking for another format? Having issues loading an existing format? Contact us
Advertisement - Login to hide

Notes

Requested: LFBY LFIY LFBO LFBP

Route

LFBY LFBO LFBP

ID Type Via Altitude Latitude Longitude Leg Dist Tot Dist Heading (true) Name
O LFBY APT - 0 ft / 0 m 43.69000˚ -1.06700˚ - 0 nm - Dax Seyresse
LFBO APT - 0 ft / 0 m 43.62903˚ 1.36397˚ 105 nm 105 nm 91° / 93° Toulouse Blagnac
O LFBP APT - 0 ft / 0 m 43.38108˚ -0.42075˚ 79 nm 184 nm 260° / 259° Pau Pyrenees

Altitude Profile

Advertisement - Login to hide

Weather


0- 5 10 15 20 25 30 35+ Temperature / ° C

Clouds and Precipitation
Forecast for 2017-12-17 18:00 UTC. Updated 33 minutes ago

Ground ~20,000 ft ~40,000 ft Winds

LFBY

Details ICAO LFBY
Name Dax Seyresse
Region France
Timezone Europe/Paris (UTC+1.0)
Stats Elevation 108 ft / 33 m (AMSL)
Location 43.689995° -1.066997°
Runways 1
Magnetic Variation 0.104° W

METAR

LFBY 171530Z AUTO 33004KT 290V360 9999 // FEW025/// SCT038/// ///TCU 09/06 Q1031

Decode

TAF

Not found

Departure Runways

ID Width Length Bearing (true) Bearing (mag) Surface Threshold Offset Overrun Length
08 98 ft / 30 m 2,462 ft / 751 m 74.00° 74.10° Dirt 0 ft / 0 m 0 ft / 0 m
26 98 ft / 30 m 2,462 ft / 751 m 254.00° 254.10° Dirt 0 ft / 0 m 0 ft / 0 m

LFBP

Details ICAO LFBP (PUF)
Name Pau Pyrenees
Region France
Timezone Europe/Paris (UTC+1.0)
Stats Elevation 616 ft / 188 m (AMSL)
Location 43.381078° -0.420752°
Runways 1
Magnetic Variation 0.095° E

METAR

LFBP 171530Z AUTO 26005KT 9999 FEW031 SCT039 BKN052 09/05 Q1031 TEMPO 4000 -RA BKN012

Decode

TAF

TAF LFBP 171100Z 1712/1812 18003KT 9999 FEW070 BKN100 TEMPO 1715/1812 4000 -RA BKN012 PROB40 TEMPO 1810/1812 25015G25KT

Decode

Destination Runways

ID Width Length Bearing (true) Bearing (mag) Surface Threshold Offset Overrun Length
13 148 ft / 45 m 8,191 ft / 2,497 m 125.89° 125.80° Asphalt 0 ft / 0 m 0 ft / 0 m
31 148 ft / 45 m 8,191 ft / 2,497 m 305.90° 305.81° Asphalt 0 ft / 0 m 0 ft / 0 m

Approach Navaids

Runway Type Ident Frequency Range Bearing (true) Bearing (mag) Slope Elevation
31 Localiser PU 110.10 MHz 18 nm / 33 km 305.89° 305.79° - 576 ft / 176 m (AMSL)
31 Glidescope PU 110.10 MHz 10 nm / 19 km 305.90° 305.80° 3.00° 676 ft / 206 m (AMSL)
31 DME PU 110.10 MHz 18 nm / 33 km - - - 608 ft / 185 m (AMSL)